Time;durP1;ratioP1;P1;durP2;ratioP2;P2;SDS_P1;SDS_P2;PMS_P1;PMS_P2;Temp;Humidity;BMP_temperature;BMP_pressure;BME280_temperature;BME280_humidity;BME280_pressure;Samples;Min_cycle;Max_cycle;Signal;HPM_P1;HPM_P2
2021/12/18 00:01:24;;;;;;;0.85;0.30;;;15.40;69.10;;;;;;4651207;30;20353;-71
2021/12/18 00:03:51;;;;;;;0.70;0.40;;;15.40;69.00;;;;;;4651020;30;20076;-72
2021/12/18 00:06:16;;;;;;;1.33;0.32;;;15.40;68.90;;;;;;4650630;30;20057;-71
2021/12/18 00:08:43;;;;;;;1.63;0.50;;;15.40;68.70;;;;;;4635999;30;20063;-72
2021/12/18 00:11:09;;;;;;;1.52;0.43;;;15.30;68.70;;;;;;4651087;30;20076;-71
2021/12/18 00:13:35;;;;;;;1.00;0.60;;;15.30;68.60;;;;;;4651061;30;20055;-72
2021/12/18 00:16:01;;;;;;;0.98;0.40;;;15.30;68.60;;;;;;4650788;30;20194;-72
2021/12/18 00:18:27;;;;;;;1.02;0.50;;;15.30;68.50;;;;;;4650970;30;20137;-72
2021/12/18 00:20:53;;;;;;;0.77;0.40;;;15.40;68.50;;;;;;4650799;30;20459;-72
2021/12/18 00:23:19;;;;;;;1.17;0.28;;;15.30;68.40;;;;;;4650732;30;20055;-73
2021/12/18 00:25:44;;;;;;;0.70;0.20;;;15.30;68.40;;;;;;4651109;30;20047;-72
2021/12/18 00:28:11;;;;;;;0.90;0.30;;;15.30;68.30;;;;;;4650658;30;20495;-71
2021/12/18 00:30:37;;;;;;;0.63;0.20;;;15.30;68.20;;;;;;4636233;30;20437;-72
2021/12/18 00:33:04;;;;;;;0.68;0.20;;;15.30;68.00;;;;;;4651221;30;20063;-71
2021/12/18 00:35:32;;;;;;;0.65;0.20;;;15.30;68.00;;;;;;4650630;30;20054;-72
2021/12/18 00:38:05;;;;;;;0.52;0.17;;;15.30;68.00;;;;;;4650043;30;20062;-71
2021/12/18 00:40:43;;;;;;;0.30;0.20;;;15.30;67.90;;;;;;4650417;30;20145;-72
2021/12/18 00:43:23;;;;;;;0.28;0.20;;;15.30;67.80;;;;;;4650970;30;20055;-71
2021/12/18 00:45:50;;;;;;;0.90;0.40;;;15.20;67.80;;;;;;4650512;30;20065;-72
2021/12/18 00:48:16;;;;;;;1.05;0.43;;;15.20;67.80;;;;;;4650334;30;20055;-72
2021/12/18 00:50:42;;;;;;;0.70;0.30;;;15.20;67.70;;;;;;4650396;30;20055;-70
2021/12/18 00:53:08;;;;;;;1.83;0.50;;;15.20;67.80;;;;;;4650185;30;20061;-71
2021/12/18 00:55:36;;;;;;;0.38;0.10;;;15.20;67.70;;;;;;4651058;30;20141;-72
2021/12/18 00:58:02;;;;;;;0.52;0.30;;;15.10;67.70;;;;;;4650137;30;20150;-71
2021/12/18 01:00:28;;;;;;;0.60;0.20;;;15.10;67.80;;;;;;4650512;30;20412;-71
2021/12/18 01:03:00;;;;;;;0.60;0.30;;;15.10;67.70;;;;;;4650351;30;20129;-72
2021/12/18 01:05:27;;;;;;;1.42;0.35;;;15.00;67.60;;;;;;4650895;30;20066;-72
2021/12/18 01:07:56;;;;;;;0.80;0.30;;;15.00;67.80;;;;;;4650768;30;20425;-71
2021/12/18 01:13:10;;;;;;;0.70;0.25;;;15.00;67.70;;;;;;4650214;30;20062;-72
2021/12/18 01:15:41;;;;;;;0.80;0.30;;;15.00;67.70;;;;;;4650517;30;20447;-72
2021/12/18 01:23:35;;;;;;;0.80;0.30;;;15.00;67.50;;;;;;4650140;30;19928;-71
2021/12/18 01:26:03;;;;;;;0.90;0.50;;;14.90;67.70;;;;;;4650005;30;20051;-72
2021/12/18 01:28:29;;;;;;;1.08;0.40;;;14.90;67.50;;;;;;4650335;30;20051;-70
2021/12/18 01:30:55;;;;;;;1.17;0.55;;;14.90;67.60;;;;;;4650128;30;20062;-71
2021/12/18 01:33:21;;;;;;;0.88;0.30;;;14.90;67.50;;;;;;4636036;30;20055;-71
2021/12/18 01:35:48;;;;;;;1.40;0.60;;;14.90;67.50;;;;;;4650050;30;20494;-72
2021/12/18 01:38:14;;;;;;;1.05;0.40;;;14.80;67.50;;;;;;4650042;30;20047;-72
2021/12/18 01:40:40;;;;;;;0.95;0.43;;;14.80;67.40;;;;;;4649882;30;20086;-72
2021/12/18 01:53:51;;;;;;;1.77;0.90;;;14.80;67.30;;;;;;4652805;30;20055;-71
2021/12/18 01:56:17;;;;;;;1.17;0.63;;;14.90;67.30;;;;;;4653446;30;20047;-71
2021/12/18 01:58:46;;;;;;;1.40;0.75;;;14.80;67.30;;;;;;4638125;30;20392;-71
2021/12/18 02:01:13;;;;;;;1.80;1.02;;;14.80;67.30;;;;;;4653051;30;20055;-72
2021/12/18 02:03:40;;;;;;;1.80;1.00;;;14.80;67.30;;;;;;4652914;30;20092;-72
2021/12/18 02:06:06;;;;;;;0.80;0.40;;;14.80;67.40;;;;;;4652822;30;20109;-72
2021/12/18 02:08:34;;;;;;;2.10;1.05;;;14.80;67.50;;;;;;4653538;30;20090;-71
2021/12/18 02:11:12;;;;;;;1.77;0.90;;;14.70;67.50;;;;;;4652765;30;20090;-71
2021/12/18 02:14:19;;;;;;;1.63;0.80;;;14.70;67.40;;;;;;4653317;30;20101;-71
2021/12/18 02:21:57;;;;;;;1.48;0.90;;;14.70;67.30;;;;;;4652656;30;20062;-71
2021/12/18 02:24:28;;;;;;;2.20;1.30;;;14.70;67.30;;;;;;4637945;30;20051;-71
2021/12/18 02:26:54;;;;;;;2.17;1.35;;;14.80;67.30;;;;;;4653159;30;20117;-72
2021/12/18 02:29:20;;;;;;;1.52;0.95;;;14.70;67.20;;;;;;4653009;30;20054;-71
2021/12/18 02:31:46;;;;;;;2.33;1.40;;;14.70;67.30;;;;;;4652553;30;20055;-72
2021/12/18 02:34:25;;;;;;;2.53;1.50;;;14.70;67.30;;;;;;4652556;30;20055;-72
2021/12/18 02:36:50;;;;;;;2.85;1.38;;;14.70;67.40;;;;;;4637466;30;20365;-71
2021/12/18 02:39:40;;;;;;;2.72;1.55;;;14.70;67.30;;;;;;4652444;30;20094;-72
2021/12/18 02:42:19;;;;;;;2.63;1.70;;;14.70;67.30;;;;;;4652461;30;20141;-72
2021/12/18 02:44:45;;;;;;;2.70;1.50;;;14.60;67.30;;;;;;4652820;30;20384;-71
2021/12/18 02:47:15;;;;;;;1.85;0.90;;;14.60;67.30;;;;;;4652182;30;20357;-71
2021/12/18 02:49:49;;;;;;;2.20;1.38;;;14.60;67.30;;;;;;4652230;30;20055;-71
2021/12/18 02:52:18;;;;;;;2.15;1.30;;;14.60;67.30;;;;;;4652081;30;20059;-71
2021/12/18 02:54:45;;;;;;;2.42;1.40;;;14.60;67.40;;;;;;4652110;30;20054;-72
2021/12/18 02:57:11;;;;;;;2.08;1.00;;;14.60;67.30;;;;;;4652380;30;20094;-72
2021/12/18 02:59:52;;;;;;;1.90;1.00;;;14.60;67.30;;;;;;4651477;30;20063;-71
2021/12/18 03:02:20;;;;;;;2.70;1.40;;;14.60;67.20;;;;;;4637135;30;20063;-71
2021/12/18 03:04:51;;;;;;;1.98;1.15;;;14.60;67.20;;;;;;4652114;30;20055;-71
2021/12/18 03:07:19;;;;;;;1.48;0.70;;;14.60;67.20;;;;;;4652168;30;20452;-71
2021/12/18 03:25:33;;;;;;;1.60;0.93;;;14.50;67.60;;;;;;4652270;30;20476;-72
2021/12/18 03:28:00;;;;;;;2.00;1.02;;;14.50;67.60;;;;;;4652144;30;20057;-71
2021/12/18 03:30:26;;;;;;;2.45;0.75;;;14.50;67.60;;;;;;4651456;30;20058;-72
2021/12/18 03:32:52;;;;;;;1.77;0.90;;;14.50;67.60;;;;;;4652066;30;20158;-71
2021/12/18 03:35:19;;;;;;;1.40;0.73;;;14.50;67.60;;;;;;4651415;30;20138;-72
2021/12/18 03:37:45;;;;;;;1.77;0.77;;;14.50;67.60;;;;;;4651171;30;20114;-71
2021/12/18 03:40:14;;;;;;;1.35;0.50;;;14.50;67.60;;;;;;4652085;30;20058;-71
2021/12/18 03:42:39;;;;;;;1.33;0.60;;;14.50;67.60;;;;;;4651629;30;20094;-72
2021/12/18 03:45:08;;;;;;;0.90;0.50;;;14.50;67.60;;;;;;4651854;30;20417;-71
2021/12/18 03:47:34;;;;;;;1.67;0.57;;;14.50;67.70;;;;;;4651325;30;20097;-72
2021/12/18 03:50:00;;;;;;;1.88;0.50;;;14.50;67.70;;;;;;4651129;30;20487;-72
2021/12/18 03:52:26;;;;;;;1.90;0.90;;;14.50;67.60;;;;;;4651187;30;20058;-71
2021/12/18 03:54:52;;;;;;;1.20;0.50;;;14.50;67.70;;;;;;4636617;30;20138;-72
2021/12/18 03:57:17;;;;;;;1.00;0.50;;;14.40;67.70;;;;;;4651108;30;20449;-71
2021/12/18 03:59:43;;;;;;;0.75;0.43;;;14.40;67.70;;;;;;4650982;30;20079;-71
2021/12/18 04:02:09;;;;;;;1.25;0.68;;;14.40;67.80;;;;;;4651103;30;20069;-71
2021/12/18 04:04:34;;;;;;;1.98;0.65;;;14.40;67.80;;;;;;4651472;30;20492;-71
2021/12/18 04:07:00;;;;;;;1.10;0.50;;;14.40;67.80;;;;;;4650910;30;20475;-71
2021/12/18 04:09:30;;;;;;;0.60;0.40;;;14.40;67.80;;;;;;4651240;30;20118;-72
2021/12/18 04:11:57;;;;;;;1.13;0.57;;;14.30;67.70;;;;;;4650194;30;20059;-70
2021/12/18 04:14:23;;;;;;;1.33;0.70;;;14.40;67.80;;;;;;4651161;30;20411;-72
2021/12/18 04:16:49;;;;;;;1.08;0.57;;;14.30;67.90;;;;;;4650990;30;20286;-71
2021/12/18 04:19:15;;;;;;;1.50;0.45;;;14.30;68.00;;;;;;4650630;30;20051;-72
2021/12/18 04:21:41;;;;;;;0.77;0.40;;;14.30;68.00;;;;;;4651365;30;20055;-71
2021/12/18 04:24:07;;;;;;;0.75;0.32;;;14.30;68.00;;;;;;4650722;30;20523;-72
2021/12/18 04:26:35;;;;;;;0.77;0.38;;;14.30;68.00;;;;;;4650728;30;20054;-72
2021/12/18 04:29:01;;;;;;;0.95;0.50;;;14.30;68.00;;;;;;4650595;30;20570;-71
2021/12/18 04:31:28;;;;;;;1.10;0.68;;;14.30;67.90;;;;;;4635610;30;20059;-72
2021/12/18 04:33:54;;;;;;;0.65;0.45;;;14.30;68.00;;;;;;4650524;30;20066;-71
2021/12/18 04:36:21;;;;;;;1.33;0.57;;;14.30;68.00;;;;;;4650502;30;20062;-70
2021/12/18 04:38:47;;;;;;;1.02;0.57;;;14.30;68.00;;;;;;4651042;30;20089;-72
2021/12/18 04:41:20;;;;;;;1.05;0.57;;;14.30;68.00;;;;;;4650531;30;20055;-71
2021/12/18 04:43:46;;;;;;;0.70;0.45;;;14.30;67.90;;;;;;4650998;30;20069;-71
2021/12/18 04:46:12;;;;;;;0.85;0.32;;;14.30;68.00;;;;;;4650329;30;20054;-71
2021/12/18 04:48:38;;;;;;;2.80;0.45;;;14.30;67.90;;;;;;4650685;30;20081;-73
2021/12/18 04:51:04;;;;;;;8.07;1.00;;;14.40;67.80;;;;;;4650661;30;20577;-73
2021/12/18 04:53:29;;;;;;;1.92;0.70;;;14.40;67.40;;;;;;4635667;30;20059;-74
2021/12/18 04:55:55;;;;;;;1.60;0.70;;;14.50;67.00;;;;;;4635891;30;20058;-76
2021/12/18 04:58:21;;;;;;;2.42;1.17;;;14.60;66.70;;;;;;4650287;30;20523;-72
2021/12/18 05:00:47;;;;;;;2.10;1.00;;;14.60;66.40;;;;;;4635580;30;20528;-76
2021/12/18 05:03:16;;;;;;;5.63;1.20;;;14.60;66.20;;;;;;4650168;30;20128;-78
2021/12/18 05:05:42;;;;;;;1.90;1.20;;;14.60;66.00;;;;;;4650760;30;20055;-73
2021/12/18 05:08:08;;;;;;;2.45;1.13;;;14.60;65.80;;;;;;4635634;30;20134;-75
2021/12/18 05:10:34;;;;;;;3.00;1.20;;;14.60;65.60;;;;;;4650646;30;20204;-69
2021/12/18 05:12:59;;;;;;;3.05;1.35;;;14.70;65.50;;;;;;4635835;30;20047;-71
2021/12/18 05:15:26;;;;;;;2.03;1.30;;;14.70;65.40;;;;;;4635686;30;20357;-74
2021/12/18 05:17:51;;;;;;;3.40;1.45;;;14.70;65.20;;;;;;4650089;30;20075;-72
2021/12/18 05:20:17;;;;;;;4.72;1.65;;;14.70;65.80;;;;;;4650278;30;20063;-71
2021/12/18 05:22:43;;;;;;;18.80;3.90;;;14.70;67.60;;;;;;4650232;30;20066;-72
2021/12/18 05:25:10;;;;;;;6.43;2.15;;;14.70;69.80;;;;;;4653417;30;20070;-73
2021/12/18 05:27:36;;;;;;;11.27;2.10;;;14.70;69.10;;;;;;4638592;30;20072;-74
2021/12/18 05:30:07;;;;;;;15.18;2.22;;;15.00;68.80;;;;;;4653512;30;20065;-73
2021/12/18 05:32:33;;;;;;;6.65;2.20;;;15.30;68.60;;;;;;4638599;30;20371;-72
2021/12/18 05:34:59;;;;;;;12.32;1.45;;;15.50;68.30;;;;;;4654001;30;20064;-73
2021/12/18 05:39:51;;;;;;;7.00;0.73;;;15.90;68.10;;;;;;4653758;30;20130;-71
2021/12/18 05:42:17;;;;;;;11.10;1.17;;;16.10;68.90;;;;;;4638849;30;20054;-72
2021/12/18 05:44:45;;;;;;;12.30;1.35;;;16.10;68.10;;;;;;4652747;30;20065;-74
2021/12/18 05:47:11;;;;;;;10.77;1.80;;;16.20;68.70;;;;;;4653173;30;20054;-72
2021/12/18 05:49:37;;;;;;;6.03;0.90;;;16.20;68.80;;;;;;4653287;30;20149;-72
2021/12/18 05:52:05;;;;;;;7.10;1.38;;;16.20;68.70;;;;;;4652880;30;20133;-72
2021/12/18 05:54:34;;;;;;;7.15;0.90;;;16.20;69.00;;;;;;4653404;30;20133;-70
2021/12/18 05:57:03;;;;;;;15.32;1.98;;;16.20;69.40;;;;;;4652595;30;20122;-73
2021/12/18 05:59:28;;;;;;;11.35;1.48;;;16.20;70.10;;;;;;4653096;30;20054;-72
2021/12/18 06:01:54;;;;;;;9.00;1.08;;;16.20;70.80;;;;;;4652151;30;20138;-73
2021/12/18 06:04:20;;;;;;;10.82;0.85;;;16.20;71.20;;;;;;4652989;30;20054;-73
2021/12/18 06:06:46;;;;;;;13.23;1.35;;;16.20;71.20;;;;;;4638199;30;20062;-72
2021/12/18 06:09:12;;;;;;;12.05;1.20;;;16.20;71.60;;;;;;4648427;30;20070;-77
2021/12/18 06:11:39;;;;;;;13.35;1.40;;;16.20;71.70;;;;;;4653669;30;20380;-72
2021/12/18 06:14:05;;;;;;;14.60;1.27;;;16.20;71.80;;;;;;4637775;30;20067;-75
2021/12/18 06:16:31;;;;;;;9.40;1.02;;;16.20;71.50;;;;;;4652773;30;20066;-76
2021/12/18 06:18:57;;;;;;;13.30;1.00;;;16.30;71.30;;;;;;4652587;30;20058;-75
2021/12/18 06:21:23;;;;;;;11.95;1.48;;;16.30;70.90;;;;;;4638451;30;20066;-73
2021/12/18 06:23:51;;;;;;;14.60;2.33;;;16.30;71.00;;;;;;4632493;30;20165;-73
2021/12/18 06:26:18;;;;;;;9.35;1.35;;;16.30;71.10;;;;;;4650556;30;20051;-72
2021/12/18 06:28:44;;;;;;;15.93;1.58;;;16.30;71.10;;;;;;4652355;30;20422;-73
2021/12/18 06:31:10;;;;;;;9.27;1.20;;;16.40;71.00;;;;;;4645667;30;20063;-74
2021/12/18 06:33:36;;;;;;;8.70;1.20;;;16.40;71.20;;;;;;4646350;30;20059;-75
2021/12/18 06:36:02;;;;;;;4.85;1.13;;;16.50;70.90;;;;;;4647497;30;20186;-71
2021/12/18 06:38:28;;;;;;;9.00;0.80;;;16.60;70.60;;;;;;4631170;31;20486;-73
2021/12/18 06:40:53;;;;;;;5.78;0.70;;;16.70;70.40;;;;;;4636367;30;20055;-73
2021/12/18 06:43:19;;;;;;;8.82;1.00;;;16.70;70.20;;;;;;4644502;30;20054;-73
2021/12/18 06:45:45;;;;;;;5.13;0.85;;;16.80;70.20;;;;;;4652438;30;20066;-72
2021/12/18 06:48:10;;;;;;;6.25;0.95;;;16.80;70.30;;;;;;4652290;30;20134;-71
2021/12/18 06:50:37;;;;;;;6.97;1.08;;;16.90;70.30;;;;;;4652513;30;20062;-71
2021/12/18 06:53:04;;;;;;;8.18;1.27;;;16.90;70.30;;;;;;4652431;30;20230;-76
2021/12/18 06:55:31;;;;;;;8.63;0.82;;;17.00;70.40;;;;;;4652119;30;20089;-74
2021/12/18 06:57:57;;;;;;;7.93;0.90;;;17.00;70.40;;;;;;4652467;30;20063;-76
2021/12/18 07:00:24;;;;;;;11.13;1.25;;;17.00;70.50;;;;;;4645677;30;20063;-76
2021/12/18 07:02:51;;;;;;;13.15;1.60;;;16.90;70.50;;;;;;4642564;30;20385;-75
2021/12/18 07:05:17;;;;;;;19.80;1.90;;;16.80;69.90;;;;;;4635086;31;20059;-75
2021/12/18 07:07:43;;;;;;;7.95;1.30;;;16.70;70.50;;;;;;4635226;31;20063;-73
2021/12/18 07:10:12;;;;;;;12.70;1.40;;;16.70;70.90;;;;;;4635196;31;20063;-73
2021/12/18 07:12:38;;;;;;;14.02;1.55;;;16.80;71.10;;;;;;4634831;31;20098;-76
2021/12/18 07:15:06;;;;;;;6.70;1.33;;;16.80;71.10;;;;;;4606569;31;20397;-75
2021/12/18 07:17:33;;;;;;;15.55;1.55;;;16.80;71.10;;;;;;4620504;31;20457;-75
2021/12/18 07:19:59;;;;;;;12.00;1.20;;;16.80;71.10;;;;;;4620126;31;20054;-74
2021/12/18 07:22:25;;;;;;;7.65;0.90;;;16.80;70.90;;;;;;4634932;31;20055;-74
2021/12/18 07:24:50;;;;;;;13.00;1.40;;;16.80;70.90;;;;;;4644302;30;20380;-75
2021/12/18 07:27:16;;;;;;;8.65;0.90;;;16.80;70.90;;;;;;4651647;30;20059;-74
2021/12/18 07:29:42;;;;;;;10.23;1.05;;;16.80;70.80;;;;;;4651699;30;20059;-75
2021/12/18 07:32:08;;;;;;;9.05;1.00;;;16.80;70.90;;;;;;4651492;30;20051;-73
2021/12/18 07:34:35;;;;;;;4.70;0.77;;;16.80;71.00;;;;;;4651736;30;20110;-75
2021/12/18 07:37:01;;;;;;;7.05;0.80;;;16.80;71.00;;;;;;4651576;30;20070;-76
2021/12/18 07:39:26;;;;;;;9.18;1.48;;;16.80;71.00;;;;;;4636438;30;20054;-74
2021/12/18 07:41:52;;;;;;;19.15;1.25;;;16.80;71.10;;;;;;4651014;30;20061;-75
2021/12/18 07:44:18;;;;;;;9.50;1.02;;;16.80;71.10;;;;;;4651385;30;20054;-74
2021/12/18 07:46:43;;;;;;;11.63;1.17;;;16.80;71.10;;;;;;4651098;30;20409;-75
2021/12/18 07:49:09;;;;;;;13.15;1.00;;;16.80;71.10;;;;;;4651367;30;20133;-75
2021/12/18 07:51:36;;;;;;;16.08;1.00;;;16.80;71.10;;;;;;4637268;30;20063;-73
2021/12/18 07:54:03;;;;;;;9.85;1.33;;;16.80;71.00;;;;;;4651576;30;20430;-74
2021/12/18 07:56:29;;;;;;;12.50;1.02;;;16.80;71.10;;;;;;4636173;30;20061;-77
2021/12/18 07:58:55;;;;;;;9.30;1.00;;;16.80;71.20;;;;;;4651106;30;20113;-76
2021/12/18 08:01:21;;;;;;;7.82;0.75;;;16.80;71.00;;;;;;4651597;30;20101;-77
2021/12/18 08:03:47;;;;;;;10.93;1.23;;;16.80;70.80;;;;;;4651255;30;20098;-77
2021/12/18 08:06:13;;;;;;;9.82;1.15;;;16.80;70.60;;;;;;4651390;30;20093;-76
2021/12/18 08:08:38;;;;;;;13.13;1.00;;;16.80;70.50;;;;;;4651131;30;20094;-77
2021/12/18 08:11:04;;;;;;;11.43;1.73;;;16.80;70.40;;;;;;4651070;30;20071;-78
2021/12/18 08:13:30;;;;;;;11.15;1.20;;;16.80;70.60;;;;;;4651583;30;20059;-78
2021/12/18 08:15:56;;;;;;;11.77;1.40;;;16.80;70.50;;;;;;4636351;30;20065;-77
2021/12/18 08:18:22;;;;;;;9.82;0.98;;;16.80;70.50;;;;;;4650915;30;20050;-76
2021/12/18 08:20:48;;;;;;;10.90;1.50;;;16.80;70.70;;;;;;4650426;30;20170;-78
2021/12/18 08:23:13;;;;;;;9.88;1.27;;;16.90;71.40;;;;;;4635913;30;20074;-76
2021/12/18 08:25:39;;;;;;;12.18;1.50;;;16.90;71.10;;;;;;4640486;30;20137;-78
2021/12/18 08:28:06;;;;;;;10.23;1.20;;;16.90;70.80;;;;;;4605215;31;20070;-78
2021/12/18 08:30:35;;;;;;;9.32;1.55;;;16.90;70.50;;;;;;4619881;31;20059;-74
2021/12/18 08:33:01;;;;;;;10.77;1.40;;;16.90;70.80;;;;;;4622160;30;20086;-75
2021/12/18 08:35:28;;;;;;;9.75;1.17;;;16.90;70.70;;;;;;4650673;30;20369;-75
2021/12/18 08:37:55;;;;;;;10.27;1.15;;;16.90;70.40;;;;;;4635996;30;20465;-77
2021/12/18 08:40:22;;;;;;;7.90;1.02;;;16.90;70.40;;;;;;4635369;30;20082;-75
2021/12/18 08:42:48;;;;;;;7.20;0.95;;;16.90;70.20;;;;;;4635438;30;20058;-73
2021/12/18 08:45:15;;;;;;;5.35;1.23;;;16.90;70.20;;;;;;4650724;30;20054;-74
2021/12/18 08:47:41;;;;;;;12.05;1.50;;;16.90;70.20;;;;;;4635414;30;20076;-77
2021/12/18 08:50:13;;;;;;;7.03;0.98;;;16.90;70.60;;;;;;4650815;30;20073;-79
2021/12/18 08:52:41;;;;;;;13.50;1.15;;;16.80;70.40;;;;;;4635329;30;20376;-79
2021/12/18 08:55:07;;;;;;;7.60;1.23;;;16.90;70.70;;;;;;4635265;30;20054;-75
2021/12/18 08:57:33;;;;;;;14.70;1.50;;;16.90;70.60;;;;;;4649864;30;20118;-74
2021/12/18 08:59:59;;;;;;;8.93;1.38;;;16.90;70.70;;;;;;4636120;30;20066;-73
2021/12/18 09:02:25;;;;;;;7.30;1.02;;;16.90;70.60;;;;;;4635497;30;20350;-75
2021/12/18 09:04:50;;;;;;;7.97;0.93;;;16.90;70.90;;;;;;4650151;30;20055;-75
2021/12/18 09:07:16;;;;;;;11.23;0.95;;;16.80;70.80;;;;;;4649818;30;20068;-77
2021/12/18 09:09:42;;;;;;;7.05;1.10;;;16.90;70.90;;;;;;4650267;30;20129;-72
2021/12/18 09:12:10;;;;;;;6.60;0.93;;;16.90;70.90;;;;;;4650614;30;20062;-77
2021/12/18 09:14:37;;;;;;;10.93;1.00;;;16.90;71.00;;;;;;4649322;30;20130;-77
2021/12/18 09:17:04;;;;;;;9.88;1.10;;;16.90;71.10;;;;;;4635442;30;20416;-75
2021/12/18 09:19:29;;;;;;;7.55;0.80;;;16.90;71.20;;;;;;4650214;30;20102;-74
2021/12/18 09:21:55;;;;;;;6.85;1.17;;;16.90;71.40;;;;;;4650150;30;20066;-78
2021/12/18 09:24:21;;;;;;;8.50;1.00;;;16.90;71.60;;;;;;4651035;30;20419;-75
2021/12/18 09:26:48;;;;;;;7.85;1.02;;;16.80;71.60;;;;;;4650245;30;20054;-75
2021/12/18 09:29:14;;;;;;;6.10;0.70;;;16.80;71.70;;;;;;4649442;30;20071;-72
2021/12/18 09:31:40;;;;;;;5.45;1.15;;;16.90;71.80;;;;;;4650343;30;20051;-74
2021/12/18 09:34:06;;;;;;;12.27;0.90;;;16.60;72.20;;;;;;4649133;30;20066;-75
2021/12/18 09:36:32;;;;;;;6.78;0.90;;;16.70;72.40;;;;;;4621707;30;20133;-74
2021/12/18 09:38:57;;;;;;;9.75;1.20;;;16.70;72.40;;;;;;4649630;30;20057;-73
2021/12/18 09:41:24;;;;;;;12.23;1.70;;;16.70;72.50;;;;;;4650167;30;20063;-76
2021/12/18 09:43:51;;;;;;;15.80;2.50;;;16.70;72.50;;;;;;4649686;30;20059;-78
2021/12/18 09:46:17;;;;;;;5.85;1.48;;;16.80;73.10;;;;;;4635217;30;20055;-77
2021/12/18 09:48:44;;;;;;;10.80;1.20;;;16.80;73.10;;;;;;4634165;30;20070;-76
2021/12/18 09:51:21;;;;;;;8.98;1.27;;;16.70;73.00;;;;;;4634899;30;20066;-76
2021/12/18 09:53:47;;;;;;;10.68;0.73;;;16.80;73.00;;;;;;4635171;30;20074;-77
2021/12/18 09:56:13;;;;;;;17.40;1.50;;;16.80;73.20;;;;;;4635407;30;20063;-77
2021/12/18 09:58:39;;;;;;;16.85;1.40;;;16.80;73.40;;;;;;4654582;30;20063;-77
2021/12/18 10:01:04;;;;;;;18.20;2.00;;;16.80;73.70;;;;;;4633322;30;20062;-75
2021/12/18 10:03:54;;;;;;;17.85;1.70;;;16.80;73.50;;;;;;4634819;30;20461;-76
2021/12/18 10:06:37;;;;;;;11.70;1.20;;;16.80;73.30;;;;;;4649774;30;20066;-77
2021/12/18 10:09:16;;;;;;;17.52;2.17;;;16.70;73.50;;;;;;4634666;30;20069;-77
2021/12/18 10:11:47;;;;;;;9.05;1.77;;;16.70;73.40;;;;;;4636017;31;20047;-75
2021/12/18 10:14:14;;;;;;;13.40;1.35;;;16.70;73.80;;;;;;4648492;30;20054;-76
2021/12/18 10:16:51;;;;;;;19.92;2.22;;;16.70;74.40;;;;;;4652751;30;20509;-77
2021/12/18 10:19:43;;;;;;;15.02;2.00;;;16.70;74.10;;;;;;4653073;30;20138;-77
2021/12/18 10:22:11;;;;;;;15.20;1.60;;;16.70;74.50;;;;;;4649352;30;20078;-73
2021/12/18 10:24:41;;;;;;;13.02;1.50;;;16.80;74.20;;;;;;4652514;30;20061;-73
2021/12/18 10:27:28;;;;;;;15.33;1.20;;;16.70;74.10;;;;;;4637986;30;20074;-76
2021/12/18 10:30:06;;;;;;;24.13;2.13;;;16.70;74.60;;;;;;4637531;30;20291;-76
2021/12/18 10:32:32;;;;;;;12.82;0.95;;;16.70;73.90;;;;;;4652428;30;20062;-75
2021/12/18 10:34:59;;;;;;;11.80;1.30;;;16.70;73.90;;;;;;4623259;30;20054;-74
2021/12/18 10:37:24;;;;;;;16.30;1.50;;;16.70;74.10;;;;;;4652378;30;20124;-75
2021/12/18 10:39:50;;;;;;;17.30;2.00;;;16.70;74.00;;;;;;4652277;30;20133;-74
2021/12/18 10:42:35;;;;;;;16.80;1.52;;;16.80;73.80;;;;;;4636908;30;20055;-79
2021/12/18 10:45:11;;;;;;;12.20;1.40;;;16.70;72.70;;;;;;4649660;30;20093;-74
2021/12/18 10:47:55;;;;;;;8.45;1.00;;;16.80;73.40;;;;;;4651746;30;20448;-79
2021/12/18 10:50:25;;;;;;;9.52;0.90;;;16.80;72.50;;;;;;4631424;30;20476;-76
2021/12/18 10:52:56;;;;;;;10.43;1.48;;;16.80;72.50;;;;;;4661534;30;20134;-78
2021/12/18 10:55:35;;;;;;;7.75;0.90;;;16.80;72.10;;;;;;4652181;30;20121;-76
2021/12/18 10:58:04;;;;;;;7.18;0.70;;;16.80;71.40;;;;;;4636988;30;20051;-74
2021/12/18 11:00:36;;;;;;;9.30;1.30;;;16.80;71.20;;;;;;4640387;30;20063;-80
2021/12/18 11:03:22;;;;;;;12.50;1.80;;;16.80;70.80;;;;;;4626557;31;20059;-76
2021/12/18 11:06:24;;;;;;;10.27;1.00;;;16.80;70.40;;;;;;4636250;30;20051;-76
2021/12/18 11:09:12;;;;;;;13.55;1.10;;;16.70;70.40;;;;;;4651847;30;20090;-75
2021/12/18 11:14:34;;;;;;;13.57;1.40;;;16.80;70.90;;;;;;4635496;31;20070;-73
2021/12/18 11:17:03;;;;;;;15.02;1.92;;;16.80;71.10;;;;;;4620482;31;20473;-76
2021/12/18 11:19:31;;;;;;;10.32;1.38;;;16.80;71.10;;;;;;4638658;30;20054;-75
2021/12/18 11:21:59;;;;;;;13.95;1.35;;;16.80;71.30;;;;;;4635841;30;20063;-78
2021/12/18 11:24:53;;;;;;;10.07;1.35;;;16.80;71.50;;;;;;4651991;30;20135;-78
2021/12/18 11:27:21;;;;;;;10.10;0.93;;;16.80;71.50;;;;;;4634799;31;20381;-76
2021/12/18 11:30:02;;;;;;;14.05;1.38;;;16.80;71.90;;;;;;4620027;31;20074;-77
2021/12/18 11:32:32;;;;;;;19.83;5.75;;;16.80;71.80;;;;;;4620219;31;20075;-79
2021/12/18 11:35:03;;;;;;;15.05;6.03;;;16.80;72.70;;;;;;4629465;30;20058;-76
2021/12/18 11:37:39;;;;;;;19.95;7.88;;;16.90;73.50;;;;;;4641019;30;20058;-79
2021/12/18 11:40:09;;;;;;;23.40;6.93;;;16.90;74.00;;;;;;4635048;30;20213;-75
2021/12/18 11:42:35;;;;;;;17.80;6.85;;;16.90;74.50;;;;;;4640523;30;20467;-76
2021/12/18 11:45:05;;;;;;;23.00;8.65;;;16.90;75.00;;;;;;4651389;30;20101;-76
2021/12/18 11:47:33;;;;;;;20.73;7.90;;;16.90;76.30;;;;;;4636047;30;20055;-77
2021/12/18 11:50:21;;;;;;;18.55;4.97;;;16.90;79.00;;;;;;4650483;30;20054;-76
2021/12/18 11:52:58;;;;;;;18.30;4.10;;;17.00;79.20;;;;;;4650786;30;20385;-76
2021/12/18 11:55:26;;;;;;;14.60;3.17;;;17.00;78.50;;;;;;4651288;30;20117;-73
2021/12/18 11:57:59;;;;;;;16.70;2.85;;;17.00;77.50;;;;;;4651146;30;20434;-75
2021/12/18 12:00:37;;;;;;;16.95;2.55;;;17.00;76.10;;;;;;4636708;30;20055;-75
2021/12/18 12:03:05;;;;;;;11.88;2.88;;;17.00;75.60;;;;;;4651098;30;20082;-75
2021/12/18 12:05:36;;;;;;;19.92;2.90;;;16.90;75.80;;;;;;4651306;30;20062;-76
2021/12/18 12:08:42;;;;;;;12.02;2.33;;;16.90;75.80;;;;;;4651880;30;20066;-76
2021/12/18 12:11:27;;;;;;;14.93;2.50;;;16.90;76.00;;;;;;4650752;30;20465;-75
2021/12/18 12:13:58;;;;;;;8.63;2.20;;;16.90;76.10;;;;;;4636031;30;20059;-75
2021/12/18 12:16:43;;;;;;;15.55;1.90;;;16.90;76.10;;;;;;4635800;30;20491;-74
2021/12/18 12:19:24;;;;;;;9.43;1.75;;;16.90;75.90;;;;;;4635980;30;20070;-75
2021/12/18 12:21:57;;;;;;;6.45;1.85;;;16.80;75.90;;;;;;4651053;30;20055;-75
2021/12/18 12:24:25;;;;;;;9.18;1.83;;;16.80;75.90;;;;;;4622061;30;20408;-74
2021/12/18 12:26:53;;;;;;;7.85;1.13;;;16.80;75.50;;;;;;4650380;30;20047;-76
2021/12/18 12:29:19;;;;;;;8.07;1.50;;;16.40;72.70;;;;;;4650415;30;20098;-75
2021/12/18 12:32:06;;;;;;;10.82;1.35;;;16.20;73.40;;;;;;4650574;30;20082;-77
2021/12/18 12:34:37;;;;;;;6.47;1.13;;;16.00;73.90;;;;;;4648480;30;20059;-74
2021/12/18 12:37:35;;;;;;;6.68;1.33;;;15.80;74.60;;;;;;4634079;31;20077;-74
2021/12/18 12:40:14;;;;;;;10.48;1.42;;;16.00;77.20;;;;;;4632471;31;20134;-74
2021/12/18 12:43:01;;;;;;;9.05;1.80;;;16.10;75.50;;;;;;4641886;30;20042;-73
2021/12/18 12:45:38;;;;;;;11.57;1.70;;;16.10;75.90;;;;;;4635547;30;20065;-75
2021/12/18 12:48:04;;;;;;;9.30;1.67;;;16.30;76.00;;;;;;4634407;31;20059;-75
2021/12/18 12:50:31;;;;;;;13.73;1.60;;;16.40;75.60;;;;;;4633842;31;20065;-78
2021/12/18 12:52:59;;;;;;;20.08;1.77;;;16.50;75.40;;;;;;4626566;30;20396;-74
2021/12/18 12:55:28;;;;;;;9.20;1.17;;;16.50;75.30;;;;;;4650546;30;20113;-75
2021/12/18 12:58:04;;;;;;;16.55;1.70;;;16.50;75.20;;;;;;4635002;30;20113;-74
2021/12/18 13:00:35;;;;;;;11.88;1.42;;;16.60;75.00;;;;;;4633330;30;20138;-76
2021/12/18 13:03:11;;;;;;;10.85;1.58;;;16.60;74.90;;;;;;4641635;30;20055;-73
2021/12/18 13:05:47;;;;;;;12.45;1.77;;;16.70;74.80;;;;;;4634369;30;20417;-77
2021/12/18 13:08:19;;;;;;;12.73;1.55;;;16.70;74.60;;;;;;4659468;30;20184;-79
2021/12/18 13:10:48;;;;;;;24.88;2.20;;;16.70;74.50;;;;;;4665898;30;20066;-79
2021/12/18 13:13:18;;;;;;;9.88;1.35;;;16.80;74.40;;;;;;4657855;30;20130;-78
2021/12/18 13:15:47;;;;;;;15.38;1.40;;;16.70;74.50;;;;;;4650179;30;20062;-77
2021/12/18 13:18:13;;;;;;;17.48;2.08;;;16.70;74.60;;;;;;4650728;30;20141;-76
2021/12/18 13:20:55;;;;;;;12.88;1.70;;;16.70;74.70;;;;;;4629940;30;20082;-79
2021/12/18 13:23:38;;;;;;;9.00;1.30;;;16.70;74.70;;;;;;4649281;30;20050;-79
2021/12/18 13:26:05;;;;;;;8.15;1.35;;;16.70;74.70;;;;;;4643997;30;20519;-80
2021/12/18 13:28:32;;;;;;;9.75;1.30;;;16.70;74.60;;;;;;4639474;30;20063;-79
2021/12/18 13:30:57;;;;;;;9.35;1.17;;;16.70;74.50;;;;;;4633227;31;20064;-77
2021/12/18 13:33:25;;;;;;;11.13;1.45;;;16.70;74.50;;;;;;4633378;31;20078;-76
2021/12/18 13:36:01;;;;;;;13.25;1.25;;;16.70;74.70;;;;;;4635659;30;20058;-76
2021/12/18 13:38:44;;;;;;;8.05;1.02;;;16.70;74.70;;;;;;4640533;30;20067;-75